sensor_id;sensor_type;location;lat;lon;timestamp;pressure;altitude;pressure_sealevel;temperature;humidity
51031;BME280;37058;41.442;23.240;2022-07-23T00:00:33;100508.25;;;25.04;60.95
51031;BME280;37058;41.442;23.240;2022-07-23T00:02:59;100505.53;;;24.96;61.58
51031;BME280;37058;41.442;23.240;2022-07-23T00:05:25;100511.50;;;24.94;61.89
51031;BME280;37058;41.442;23.240;2022-07-23T00:07:51;100511.25;;;24.87;62.08
51031;BME280;37058;41.442;23.240;2022-07-23T00:10:17;100508.31;;;24.83;62.17
51031;BME280;37058;41.442;23.240;2022-07-23T00:12:43;100514.59;;;24.80;62.22
51031;BME280;37058;41.442;23.240;2022-07-23T00:15:09;100514.81;;;24.75;62.43
51031;BME280;37058;41.442;23.240;2022-07-23T00:17:36;100516.00;;;24.74;62.28
51031;BME280;37058;41.442;23.240;2022-07-23T00:20:03;100515.63;;;24.76;62.00
51031;BME280;37058;41.442;23.240;2022-07-23T00:22:29;100516.91;;;24.78;62.35
51031;BME280;37058;41.442;23.240;2022-07-23T00:24:58;100514.59;;;24.80;62.08
51031;BME280;37058;41.442;23.240;2022-07-23T00:27:24;100513.88;;;24.71;62.45
51031;BME280;37058;41.442;23.240;2022-07-23T00:29:50;100511.75;;;24.56;62.83
51031;BME280;37058;41.442;23.240;2022-07-23T00:32:16;100510.75;;;24.39;63.38
51031;BME280;37058;41.442;23.240;2022-07-23T00:34:42;100514.94;;;24.33;63.64
51031;BME280;37058;41.442;23.240;2022-07-23T00:37:08;100519.06;;;24.27;64.13
51031;BME280;37058;41.442;23.240;2022-07-23T00:39:34;100519.72;;;24.12;64.44
51031;BME280;37058;41.442;23.240;2022-07-23T00:41:59;100518.63;;;24.04;65.15
51031;BME280;37058;41.442;23.240;2022-07-23T00:44:27;100513.13;;;23.95;65.36
51031;BME280;37058;41.442;23.240;2022-07-23T00:46:57;100524.28;;;23.95;65.78
51031;BME280;37058;41.442;23.240;2022-07-23T00:49:27;100512.16;;;23.91;65.72
51031;BME280;37058;41.442;23.240;2022-07-23T00:51:53;100511.19;;;23.87;65.76
51031;BME280;37058;41.442;23.240;2022-07-23T00:54:22;100510.75;;;23.85;65.40
51031;BME280;37058;41.442;23.240;2022-07-23T00:56:48;100509.91;;;23.85;65.46
51031;BME280;37058;41.442;23.240;2022-07-23T00:59:14;100515.38;;;23.81;65.66
51031;BME280;37058;41.442;23.240;2022-07-23T01:01:41;100521.50;;;23.66;66.43
51031;BME280;37058;41.442;23.240;2022-07-23T01:04:07;100522.03;;;23.59;66.62
51031;BME280;37058;41.442;23.240;2022-07-23T01:06:37;100508.25;;;23.63;65.91
51031;BME280;37058;41.442;23.240;2022-07-23T01:09:05;100522.41;;;23.57;66.44
51031;BME280;37058;41.442;23.240;2022-07-23T01:11:34;100518.31;;;23.55;66.95
51031;BME280;37058;41.442;23.240;2022-07-23T01:14:12;100523.25;;;23.49;66.90
51031;BME280;37058;41.442;23.240;2022-07-23T01:16:39;100527.19;;;23.48;67.01
51031;BME280;37058;41.442;23.240;2022-07-23T01:19:06;100529.09;;;23.56;66.47
51031;BME280;37058;41.442;23.240;2022-07-23T01:21:38;100527.19;;;23.48;67.07
51031;BME280;37058;41.442;23.240;2022-07-23T01:24:06;100524.50;;;23.31;67.50
51031;BME280;37058;41.442;23.240;2022-07-23T01:26:32;100513.56;;;23.26;67.91
51031;BME280;37058;41.442;23.240;2022-07-23T01:28:58;100524.06;;;23.20;68.20
51031;BME280;37058;41.442;23.240;2022-07-23T01:31:25;100518.00;;;23.18;68.33
51031;BME280;37058;41.442;23.240;2022-07-23T01:33:51;100519.81;;;23.23;68.07
51031;BME280;37058;41.442;23.240;2022-07-23T01:36:17;100521.31;;;23.11;68.38
51031;BME280;37058;41.442;23.240;2022-07-23T01:38:43;100527.91;;;23.07;68.46
51031;BME280;37058;41.442;23.240;2022-07-23T01:41:09;100524.81;;;23.00;68.79
51031;BME280;37058;41.442;23.240;2022-07-23T01:43:35;100527.59;;;23.00;69.25
51031;BME280;37058;41.442;23.240;2022-07-23T01:46:01;100524.81;;;22.91;69.62
51031;BME280;37058;41.442;23.240;2022-07-23T01:48:27;100525.47;;;22.88;69.98
51031;BME280;37058;41.442;23.240;2022-07-23T01:50:53;100527.13;;;22.98;69.61
51031;BME280;37058;41.442;23.240;2022-07-23T01:53:18;100530.72;;;22.98;69.49
51031;BME280;37058;41.442;23.240;2022-07-23T01:55:45;100529.91;;;22.98;69.08
51031;BME280;37058;41.442;23.240;2022-07-23T01:58:11;100528.91;;;22.93;68.74
51031;BME280;37058;41.442;23.240;2022-07-23T02:00:36;100530.53;;;22.94;68.49
51031;BME280;37058;41.442;23.240;2022-07-23T02:03:02;100532.97;;;22.96;68.64
51031;BME280;37058;41.442;23.240;2022-07-23T02:05:29;100530.19;;;22.96;68.48
51031;BME280;37058;41.442;23.240;2022-07-23T02:07:57;100538.91;;;22.94;68.61
51031;BME280;37058;41.442;23.240;2022-07-23T02:10:24;100534.13;;;23.04;66.39
51031;BME280;37058;41.442;23.240;2022-07-23T02:12:50;100539.69;;;23.04;65.28
51031;BME280;37058;41.442;23.240;2022-07-23T02:15:16;100548.91;;;23.04;64.94
51031;BME280;37058;41.442;23.240;2022-07-23T02:17:42;100540.72;;;22.99;66.16
51031;BME280;37058;41.442;23.240;2022-07-23T02:20:10;100550.22;;;22.98;66.66
51031;BME280;37058;41.442;23.240;2022-07-23T02:22:36;100538.25;;;22.98;66.92
51031;BME280;37058;41.442;23.240;2022-07-23T02:25:04;100550.38;;;22.93;67.03
51031;BME280;37058;41.442;23.240;2022-07-23T02:27:30;100553.00;;;22.89;66.62
51031;BME280;37058;41.442;23.240;2022-07-23T02:29:56;100554.00;;;22.85;66.45
51031;BME280;37058;41.442;23.240;2022-07-23T02:32:23;100558.75;;;22.76;66.66
51031;BME280;37058;41.442;23.240;2022-07-23T02:34:50;100556.78;;;22.76;66.28
51031;BME280;37058;41.442;23.240;2022-07-23T02:37:16;100558.28;;;22.73;66.32
51031;BME280;37058;41.442;23.240;2022-07-23T02:39:43;100566.97;;;22.72;66.02
51031;BME280;37058;41.442;23.240;2022-07-23T02:42:09;100570.91;;;22.62;66.43
51031;BME280;37058;41.442;23.240;2022-07-23T02:44:35;100565.69;;;22.52;66.92
51031;BME280;37058;41.442;23.240;2022-07-23T02:47:01;100575.03;;;22.39;67.55
51031;BME280;37058;41.442;23.240;2022-07-23T02:49:27;100575.84;;;22.31;68.10
51031;BME280;37058;41.442;23.240;2022-07-23T02:51:53;100581.88;;;22.15;68.95
51031;BME280;37058;41.442;23.240;2022-07-23T02:54:19;100579.91;;;22.07;69.29
51031;BME280;37058;41.442;23.240;2022-07-23T02:56:45;100582.53;;;22.03;69.19
51031;BME280;37058;41.442;23.240;2022-07-23T02:59:11;100590.38;;;22.01;69.74
51031;BME280;37058;41.442;23.240;2022-07-23T03:01:37;100585.63;;;22.02;69.99
51031;BME280;37058;41.442;23.240;2022-07-23T03:04:03;100586.94;;;21.96;69.94
51031;BME280;37058;41.442;23.240;2022-07-23T03:06:29;100591.50;;;21.92;70.42
51031;BME280;37058;41.442;23.240;2022-07-23T03:08:55;100596.06;;;21.88;70.48
51031;BME280;37058;41.442;23.240;2022-07-23T03:11:21;100596.72;;;21.84;70.03
51031;BME280;37058;41.442;23.240;2022-07-23T03:13:47;100598.84;;;21.79;69.98
51031;BME280;37058;41.442;23.240;2022-07-23T03:16:13;100604.56;;;21.82;70.18
51031;BME280;37058;41.442;23.240;2022-07-23T03:18:39;100610.63;;;21.84;69.94
51031;BME280;37058;41.442;23.240;2022-07-23T03:21:05;100613.56;;;21.79;69.75
51031;BME280;37058;41.442;23.240;2022-07-23T03:23:30;100616.69;;;21.78;69.81
51031;BME280;37058;41.442;23.240;2022-07-23T03:25:56;100618.28;;;21.70;70.25
51031;BME280;37058;41.442;23.240;2022-07-23T03:28:22;100623.66;;;21.58;70.76
51031;BME280;37058;41.442;23.240;2022-07-23T03:30:48;100625.13;;;21.64;70.37
51031;BME280;37058;41.442;23.240;2022-07-23T03:33:19;100629.22;;;21.67;70.50
51031;BME280;37058;41.442;23.240;2022-07-23T03:35:46;100631.66;;;21.59;71.13
51031;BME280;37058;41.442;23.240;2022-07-23T03:38:13;100632.78;;;21.50;71.89
51031;BME280;37058;41.442;23.240;2022-07-23T03:40:39;100639.09;;;21.41;72.17
51031;BME280;37058;41.442;23.240;2022-07-23T03:43:05;100629.88;;;21.32;72.56
51031;BME280;37058;41.442;23.240;2022-07-23T03:45:31;100637.25;;;21.37;72.68
51031;BME280;37058;41.442;23.240;2022-07-23T03:47:57;100644.75;;;21.36;72.56
51031;BME280;37058;41.442;23.240;2022-07-23T03:50:24;100630.75;;;21.41;71.92
51031;BME280;37058;41.442;23.240;2022-07-23T03:52:50;100641.41;;;21.48;71.83
51031;BME280;37058;41.442;23.240;2022-07-23T03:55:16;100634.75;;;21.58;71.50
51031;BME280;37058;41.442;23.240;2022-07-23T03:57:42;100645.59;;;21.68;71.77
51031;BME280;37058;41.442;23.240;2022-07-23T04:00:10;100631.84;;;21.72;71.52
51031;BME280;37058;41.442;23.240;2022-07-23T04:02:37;100641.34;;;21.79;71.15
51031;BME280;37058;41.442;23.240;2022-07-23T04:05:04;100640.09;;;21.85;70.74
51031;BME280;37058;41.442;23.240;2022-07-23T04:07:31;100642.38;;;21.92;70.45
51031;BME280;37058;41.442;23.240;2022-07-23T04:09:57;100650.25;;;21.99;70.09
51031;BME280;37058;41.442;23.240;2022-07-23T04:12:23;100650.41;;;22.02;69.74
51031;BME280;37058;41.442;23.240;2022-07-23T04:14:49;100650.59;;;22.15;68.91
51031;BME280;37058;41.442;23.240;2022-07-23T04:17:16;100646.41;;;22.26;68.40
51031;BME280;37058;41.442;23.240;2022-07-23T04:19:43;100654.25;;;22.41;67.82
51031;BME280;37058;41.442;23.240;2022-07-23T04:22:12;100659.84;;;22.59;67.54
51031;BME280;37058;41.442;23.240;2022-07-23T04:24:38;100661.44;;;22.68;67.51
51031;BME280;37058;41.442;23.240;2022-07-23T04:27:05;100655.88;;;22.77;67.27
51031;BME280;37058;41.442;23.240;2022-07-23T04:29:31;100663.59;;;22.89;66.53
51031;BME280;37058;41.442;23.240;2022-07-23T04:31:57;100661.63;;;22.98;66.41
51031;BME280;37058;41.442;23.240;2022-07-23T04:34:23;100670.94;;;23.20;65.95
51031;BME280;37058;41.442;23.240;2022-07-23T04:36:52;100656.31;;;23.23;65.76
51031;BME280;37058;41.442;23.240;2022-07-23T04:39:19;100662.22;;;23.21;66.00
51031;BME280;37058;41.442;23.240;2022-07-23T04:41:45;100656.81;;;23.25;65.93
51031;BME280;37058;41.442;23.240;2022-07-23T04:44:11;100655.47;;;23.31;65.26
51031;BME280;37058;41.442;23.240;2022-07-23T04:46:37;100663.59;;;23.53;64.34
51031;BME280;37058;41.442;23.240;2022-07-23T04:49:03;100667.47;;;25.25;59.54
51031;BME280;37058;41.442;23.240;2022-07-23T05:06:52;100662.69;;;24.30;62.64
51031;BME280;37058;41.442;23.240;2022-07-23T05:09:18;100658.56;;;24.36;62.34
51031;BME280;37058;41.442;23.240;2022-07-23T05:11:43;100667.84;;;24.49;61.55
51031;BME280;37058;41.442;23.240;2022-07-23T05:14:09;100663.94;;;24.62;58.97
51031;BME280;37058;41.442;23.240;2022-07-23T05:16:38;100668.50;;;24.46;58.92
51031;BME280;37058;41.442;23.240;2022-07-23T05:19:04;100663.56;;;24.42;58.42
51031;BME280;37058;41.442;23.240;2022-07-23T05:21:30;100669.16;;;24.42;58.39
51031;BME280;37058;41.442;23.240;2022-07-23T05:23:56;100664.06;;;24.44;58.46
51031;BME280;37058;41.442;23.240;2022-07-23T05:26:21;100664.84;;;24.54;56.92
51031;BME280;37058;41.442;23.240;2022-07-23T05:28:47;100663.94;;;24.62;57.41
51031;BME280;37058;41.442;23.240;2022-07-23T05:31:13;100668.44;;;24.75;56.65
51031;BME280;37058;41.442;23.240;2022-07-23T05:33:39;100673.03;;;24.92;56.22
51031;BME280;37058;41.442;23.240;2022-07-23T05:36:06;100671.81;;;25.02;56.25
51031;BME280;37058;41.442;23.240;2022-07-23T05:38:32;100666.91;;;25.11;56.15
51031;BME280;37058;41.442;23.240;2022-07-23T05:40:59;100674.28;;;25.16;55.69
51031;BME280;37058;41.442;23.240;2022-07-23T05:43:26;100661.41;;;25.23;55.40
51031;BME280;37058;41.442;23.240;2022-07-23T05:45:52;100677.72;;;25.34;54.90
51031;BME280;37058;41.442;23.240;2022-07-23T05:48:18;100670.91;;;25.56;55.00
51031;BME280;37058;41.442;23.240;2022-07-23T05:50:43;100671.94;;;26.12;53.92
51031;BME280;37058;41.442;23.240;2022-07-23T05:53:09;100666.53;;;26.85;50.72
51031;BME280;37058;41.442;23.240;2022-07-23T05:55:35;100668.38;;;26.93;51.26
51031;BME280;37058;41.442;23.240;2022-07-23T05:58:01;100675.75;;;28.24;48.16
51031;BME280;37058;41.442;23.240;2022-07-23T06:00:27;100678.94;;;31.85;39.48
51031;BME280;37058;41.442;23.240;2022-07-23T06:02:54;100674.22;;;31.14;40.70
51031;BME280;37058;41.442;23.240;2022-07-23T06:05:20;100676.13;;;30.12;43.29
51031;BME280;37058;41.442;23.240;2022-07-23T06:07:46;100679.53;;;29.52;43.73
51031;BME280;37058;41.442;23.240;2022-07-23T06:10:12;100675.06;;;29.25;44.41
51031;BME280;37058;41.442;23.240;2022-07-23T06:12:38;100678.41;;;29.11;43.72
51031;BME280;37058;41.442;23.240;2022-07-23T06:15:04;100679.53;;;28.87;43.97
51031;BME280;37058;41.442;23.240;2022-07-23T06:17:30;100665.25;;;28.57;44.76
51031;BME280;37058;41.442;23.240;2022-07-23T06:19:56;100671.72;;;28.41;45.40
51031;BME280;37058;41.442;23.240;2022-07-23T06:22:22;100665.41;;;28.28;46.40
51031;BME280;37058;41.442;23.240;2022-07-23T06:24:49;100664.06;;;28.22;45.98
51031;BME280;37058;41.442;23.240;2022-07-23T06:27:17;100661.19;;;28.19;46.44
51031;BME280;37058;41.442;23.240;2022-07-23T06:29:43;100654.75;;;28.18;46.58
51031;BME280;37058;41.442;23.240;2022-07-23T06:32:09;100654.75;;;28.18;46.48
51031;BME280;37058;41.442;23.240;2022-07-23T06:34:35;100654.22;;;28.13;46.43
51031;BME280;37058;41.442;23.240;2022-07-23T06:37:01;100649.44;;;28.13;46.80
51031;BME280;37058;41.442;23.240;2022-07-23T06:39:27;100647.44;;;28.14;46.65
51031;BME280;37058;41.442;23.240;2022-07-23T06:41:54;100652.31;;;28.17;46.37
51031;BME280;37058;41.442;23.240;2022-07-23T06:44:20;100652.25;;;28.13;45.94
51031;BME280;37058;41.442;23.240;2022-07-23T06:46:45;100647.94;;;28.19;46.25
51031;BME280;37058;41.442;23.240;2022-07-23T06:49:11;100642.94;;;28.28;46.16
51031;BME280;37058;41.442;23.240;2022-07-23T06:51:37;100633.09;;;28.38;46.72
51031;BME280;37058;41.442;23.240;2022-07-23T06:54:03;100633.75;;;28.47;45.86
51031;BME280;37058;41.442;23.240;2022-07-23T06:56:29;100640.47;;;28.62;46.81
51031;BME280;37058;41.442;23.240;2022-07-23T06:58:55;100640.78;;;28.77;45.49
51031;BME280;37058;41.442;23.240;2022-07-23T07:01:21;100630.84;;;28.83;45.87
51031;BME280;37058;41.442;23.240;2022-07-23T07:03:47;100635.50;;;28.94;45.66
51031;BME280;37058;41.442;23.240;2022-07-23T07:06:14;100628.19;;;29.09;44.85
51031;BME280;37058;41.442;23.240;2022-07-23T07:08:40;100627.16;;;29.21;44.92
51031;BME280;37058;41.442;23.240;2022-07-23T07:11:07;100633.41;;;29.34;45.12
51031;BME280;37058;41.442;23.240;2022-07-23T07:13:34;100627.59;;;29.46;45.14
51031;BME280;37058;41.442;23.240;2022-07-23T07:15:59;100622.16;;;29.57;43.49
51031;BME280;37058;41.442;23.240;2022-07-23T07:18:25;100616.63;;;29.64;43.70
51031;BME280;37058;41.442;23.240;2022-07-23T07:20:51;100622.44;;;29.75;43.38
51031;BME280;37058;41.442;23.240;2022-07-23T07:23:17;100621.00;;;29.85;42.07
51031;BME280;37058;41.442;23.240;2022-07-23T07:25:43;100617.09;;;29.93;41.23
51031;BME280;37058;41.442;23.240;2022-07-23T07:28:09;100614.78;;;29.98;39.97
51031;BME280;37058;41.442;23.240;2022-07-23T07:30:35;100620.41;;;29.98;40.40
51031;BME280;37058;41.442;23.240;2022-07-23T07:33:00;100613.13;;;29.97;40.17
51031;BME280;37058;41.442;23.240;2022-07-23T07:35:26;100621.25;;;30.02;39.71
51031;BME280;37058;41.442;23.240;2022-07-23T07:37:52;100610.44;;;30.05;39.98
51031;BME280;37058;41.442;23.240;2022-07-23T07:40:19;100605.28;;;30.10;39.46
51031;BME280;37058;41.442;23.240;2022-07-23T07:42:47;100600.16;;;30.16;39.41
51031;BME280;37058;41.442;23.240;2022-07-23T07:45:14;100599.91;;;30.28;38.60
51031;BME280;37058;41.442;23.240;2022-07-23T07:47:41;100595.66;;;30.41;38.49
51031;BME280;37058;41.442;23.240;2022-07-23T07:50:07;100586.19;;;30.57;38.44
51031;BME280;37058;41.442;23.240;2022-07-23T07:52:34;100589.97;;;30.72;38.42
51031;BME280;37058;41.442;23.240;2022-07-23T07:55:03;100584.94;;;30.88;37.40
51031;BME280;37058;41.442;23.240;2022-07-23T07:57:30;100585.47;;;31.01;37.31
51031;BME280;37058;41.442;23.240;2022-07-23T07:59:56;100572.69;;;31.14;37.02
51031;BME280;37058;41.442;23.240;2022-07-23T08:02:21;100576.81;;;31.24;37.60
51031;BME280;37058;41.442;23.240;2022-07-23T08:04:47;100576.84;;;31.27;37.39
51031;BME280;37058;41.442;23.240;2022-07-23T08:07:15;100568.78;;;31.29;37.28
51031;BME280;37058;41.442;23.240;2022-07-23T08:09:41;100563.19;;;31.37;37.58
51031;BME280;37058;41.442;23.240;2022-07-23T08:12:08;100563.72;;;31.46;37.67
51031;BME280;37058;41.442;23.240;2022-07-23T08:14:34;100559.38;;;31.59;37.21
51031;BME280;37058;41.442;23.240;2022-07-23T08:16:59;100559.84;;;31.72;37.17
51031;BME280;37058;41.442;23.240;2022-07-23T08:19:25;100558.69;;;31.77;36.28
51031;BME280;37058;41.442;23.240;2022-07-23T08:21:51;100557.88;;;31.80;35.94
51031;BME280;37058;41.442;23.240;2022-07-23T08:24:17;100553.03;;;31.77;34.38
51031;BME280;37058;41.442;23.240;2022-07-23T08:26:43;100547.81;;;31.79;34.24
51031;BME280;37058;41.442;23.240;2022-07-23T08:29:09;100550.63;;;31.82;35.17
51031;BME280;37058;41.442;23.240;2022-07-23T08:31:35;100537.38;;;31.90;32.98
51031;BME280;37058;41.442;23.240;2022-07-23T08:34:01;100532.22;;;31.99;34.11
51031;BME280;37058;41.442;23.240;2022-07-23T08:36:28;100541.53;;;32.10;33.68
51031;BME280;37058;41.442;23.240;2022-07-23T08:39:00;100533.13;;;32.21;33.61
51031;BME280;37058;41.442;23.240;2022-07-23T08:41:29;100535.56;;;32.33;32.87
51031;BME280;37058;41.442;23.240;2022-07-23T08:43:55;100535.59;;;32.44;32.83
51031;BME280;37058;41.442;23.240;2022-07-23T08:46:22;100530.41;;;32.53;32.82
51031;BME280;37058;41.442;23.240;2022-07-23T08:48:50;100527.59;;;32.60;31.48
51031;BME280;37058;41.442;23.240;2022-07-23T08:51:16;100527.59;;;32.68;31.59
51031;BME280;37058;41.442;23.240;2022-07-23T08:53:43;100526.81;;;32.74;31.68
51031;BME280;37058;41.442;23.240;2022-07-23T08:56:10;100516.31;;;32.82;31.27
51031;BME280;37058;41.442;23.240;2022-07-23T08:58:36;100515.50;;;32.89;29.79
51031;BME280;37058;41.442;23.240;2022-07-23T09:01:02;100523.59;;;32.94;30.45
51031;BME280;37058;41.442;23.240;2022-07-23T09:03:34;100518.75;;;32.98;30.03
51031;BME280;37058;41.442;23.240;2022-07-23T09:06:02;100522.84;;;33.08;30.03
51031;BME280;37058;41.442;23.240;2022-07-23T09:08:40;100515.53;;;33.14;29.77
51031;BME280;37058;41.442;23.240;2022-07-23T09:11:13;100521.63;;;33.23;30.15
51031;BME280;37058;41.442;23.240;2022-07-23T09:13:52;100516.34;;;33.29;29.97
51031;BME280;37058;41.442;23.240;2022-07-23T09:16:27;100510.66;;;33.32;30.40
51031;BME280;37058;41.442;23.240;2022-07-23T09:18:57;100507.06;;;33.35;29.92
51031;BME280;37058;41.442;23.240;2022-07-23T09:21:32;100496.91;;;33.41;30.01
51031;BME280;37058;41.442;23.240;2022-07-23T09:24:10;100496.94;;;33.45;29.42
51031;BME280;37058;41.442;23.240;2022-07-23T09:26:46;100488.81;;;33.47;30.58
51031;BME280;37058;41.442;23.240;2022-07-23T09:29:23;100495.28;;;33.51;31.04
51031;BME280;37058;41.442;23.240;2022-07-23T09:31:57;100493.66;;;33.57;30.95
51031;BME280;37058;41.442;23.240;2022-07-23T09:34:28;100476.25;;;33.62;31.80
51031;BME280;37058;41.442;23.240;2022-07-23T09:37:13;100472.63;;;33.65;31.43
51031;BME280;37058;41.442;23.240;2022-07-23T09:39:41;100475.03;;;33.71;31.71
51031;BME280;37058;41.442;23.240;2022-07-23T09:42:25;100467.34;;;33.78;31.96
51031;BME280;37058;41.442;23.240;2022-07-23T09:44:57;100462.44;;;33.86;31.72
51031;BME280;37058;41.442;23.240;2022-07-23T09:47:28;100464.03;;;33.94;32.19
51031;BME280;37058;41.442;23.240;2022-07-23T09:50:04;100468.44;;;33.99;32.14
51031;BME280;37058;41.442;23.240;2022-07-23T09:52:47;100459.53;;;34.04;32.09
51031;BME280;37058;41.442;23.240;2022-07-23T09:55:15;100454.66;;;34.08;32.17
51031;BME280;37058;41.442;23.240;2022-07-23T09:57:42;100456.25;;;34.13;31.97
51031;BME280;37058;41.442;23.240;2022-07-23T10:00:13;100463.53;;;34.17;31.97
51031;BME280;37058;41.442;23.240;2022-07-23T10:02:40;100448.53;;;34.20;31.87
51031;BME280;37058;41.442;23.240;2022-07-23T10:05:07;100442.84;;;34.24;31.63
51031;BME280;37058;41.442;23.240;2022-07-23T10:07:37;100448.88;;;34.29;31.73
51031;BME280;37058;41.442;23.240;2022-07-23T10:10:06;100442.78;;;34.35;31.69
51031;BME280;37058;41.442;23.240;2022-07-23T10:12:32;100433.81;;;34.40;31.77
51031;BME280;37058;41.442;23.240;2022-07-23T10:15:17;100426.13;;;34.44;31.83
51031;BME280;37058;41.442;23.240;2022-07-23T10:17:43;100429.72;;;34.48;31.95
51031;BME280;37058;41.442;23.240;2022-07-23T10:20:10;100430.91;;;34.54;31.28
51031;BME280;37058;41.442;23.240;2022-07-23T10:22:44;100422.75;;;34.56;31.49
51031;BME280;37058;41.442;23.240;2022-07-23T10:25:44;100423.56;;;34.60;31.63
51031;BME280;37058;41.442;23.240;2022-07-23T10:28:45;100411.81;;;34.62;30.79
51031;BME280;37058;41.442;23.240;2022-07-23T10:34:39;100404.44;;;34.71;31.84
51031;BME280;37058;41.442;23.240;2022-07-23T10:37:28;100399.94;;;34.78;31.74
51031;BME280;37058;41.442;23.240;2022-07-23T10:40:19;100395.41;;;34.84;32.20
51031;BME280;37058;41.442;23.240;2022-07-23T10:42:47;100395.78;;;34.89;31.90
51031;BME280;37058;41.442;23.240;2022-07-23T10:45:31;100385.97;;;34.94;31.32
51031;BME280;37058;41.442;23.240;2022-07-23T10:48:17;100385.91;;;35.01;31.80
51031;BME280;37058;41.442;23.240;2022-07-23T10:50:45;100374.09;;;35.06;31.50
51031;BME280;37058;41.442;23.240;2022-07-23T10:53:59;100375.66;;;35.14;30.93
51031;BME280;37058;41.442;23.240;2022-07-23T10:59:22;100360.53;;;35.28;31.87
51031;BME280;37058;41.442;23.240;2022-07-23T11:01:48;100358.00;;;35.34;31.69
51031;BME280;37058;41.442;23.240;2022-07-23T11:04:15;100360.38;;;35.39;30.63
51031;BME280;37058;41.442;23.240;2022-07-23T11:09:43;100335.97;;;35.45;29.68
51031;BME280;37058;41.442;23.240;2022-07-23T11:15:14;100335.03;;;35.55;28.61
51031;BME280;37058;41.442;23.240;2022-07-23T11:25:12;100326.72;;;35.72;26.38
51031;BME280;37058;41.442;23.240;2022-07-23T11:27:44;100326.22;;;35.77;26.26
51031;BME280;37058;41.442;23.240;2022-07-23T11:35:36;100316.34;;;35.89;24.80
51031;BME280;37058;41.442;23.240;2022-07-23T11:38:22;100306.53;;;35.93;21.88
51031;BME280;37058;41.442;23.240;2022-07-23T11:40:54;100300.41;;;35.95;21.94
51031;BME280;37058;41.442;23.240;2022-07-23T11:43:22;100305.44;;;36.11;21.74
51031;BME280;37058;41.442;23.240;2022-07-23T11:45:56;100290.25;;;36.21;23.12
51031;BME280;37058;41.442;23.240;2022-07-23T11:48:27;100288.97;;;36.26;23.12
51031;BME280;37058;41.442;23.240;2022-07-23T11:50:55;100291.75;;;36.29;24.76
51031;BME280;37058;41.442;23.240;2022-07-23T11:53:30;100291.75;;;36.29;24.13
51031;BME280;37058;41.442;23.240;2022-07-23T11:56:08;100284.31;;;36.35;23.39
51031;BME280;37058;41.442;23.240;2022-07-23T11:58:36;100285.06;;;36.39;24.87
51031;BME280;37058;41.442;23.240;2022-07-23T12:01:03;100270.84;;;36.39;23.55
51031;BME280;37058;41.442;23.240;2022-07-23T12:03:29;100276.53;;;36.39;23.33
51031;BME280;37058;41.442;23.240;2022-07-23T12:05:59;100262.69;;;36.41;23.63
51031;BME280;37058;41.442;23.240;2022-07-23T12:08:26;100269.09;;;36.45;24.11
51031;BME280;37058;41.442;23.240;2022-07-23T12:10:52;100270.28;;;36.48;23.16
51031;BME280;37058;41.442;23.240;2022-07-23T12:13:20;100267.00;;;36.50;23.29
51031;BME280;37058;41.442;23.240;2022-07-23T12:15:56;100262.03;;;36.54;23.41
51031;BME280;37058;41.442;23.240;2022-07-23T12:18:25;100257.13;;;36.58;22.92
51031;BME280;37058;41.442;23.240;2022-07-23T12:20:56;100256.25;;;36.61;22.07
51031;BME280;37058;41.442;23.240;2022-07-23T12:23:25;100242.03;;;36.61;19.92
51031;BME280;37058;41.442;23.240;2022-07-23T12:25:53;100245.25;;;36.63;19.60
51031;BME280;37058;41.442;23.240;2022-07-23T12:28:31;100247.22;;;36.66;19.76
51031;BME280;37058;41.442;23.240;2022-07-23T12:30:59;100233.38;;;36.68;18.75
51031;BME280;37058;41.442;23.240;2022-07-23T12:33:38;100234.13;;;36.72;19.40
51031;BME280;37058;41.442;23.240;2022-07-23T12:36:07;100234.03;;;36.76;20.16
51031;BME280;37058;41.442;23.240;2022-07-23T12:38:48;100232.34;;;36.78;19.72
51031;BME280;37058;41.442;23.240;2022-07-23T12:41:15;100234.31;;;36.81;20.40
51031;BME280;37058;41.442;23.240;2022-07-23T12:43:44;100233.09;;;36.82;20.65
51031;BME280;37058;41.442;23.240;2022-07-23T12:46:16;100224.94;;;36.84;21.84
51031;BME280;37058;41.442;23.240;2022-07-23T12:51:15;100232.50;;;36.91;20.83
51031;BME280;37058;41.442;23.240;2022-07-23T12:53:46;100228.44;;;36.92;20.85
51031;BME280;37058;41.442;23.240;2022-07-23T12:56:21;100219.81;;;36.96;21.17
51031;BME280;37058;41.442;23.240;2022-07-23T12:58:52;100219.72;;;36.99;21.72
51031;BME280;37058;41.442;23.240;2022-07-23T13:09:13;100211.69;;;37.14;22.44
51031;BME280;37058;41.442;23.240;2022-07-23T13:11:40;100200.31;;;37.14;22.79
51031;BME280;37058;41.442;23.240;2022-07-23T13:14:06;100196.94;;;37.19;23.06
51031;BME280;37058;41.442;23.240;2022-07-23T13:16:33;100198.09;;;37.22;23.75
51031;BME280;37058;41.442;23.240;2022-07-23T13:19:00;100202.13;;;37.24;23.69
51031;BME280;37058;41.442;23.240;2022-07-23T13:21:27;100199.56;;;37.30;23.33
51031;BME280;37058;41.442;23.240;2022-07-23T13:23:55;100200.91;;;37.42;21.78
51031;BME280;37058;41.442;23.240;2022-07-23T13:26:21;100186.31;;;37.40;21.48
51031;BME280;37058;41.442;23.240;2022-07-23T13:28:47;100196.00;;;37.42;21.80
51031;BME280;37058;41.442;23.240;2022-07-23T13:31:13;100187.13;;;37.40;22.35
51031;BME280;37058;41.442;23.240;2022-07-23T13:33:39;100181.13;;;37.35;21.86
51031;BME280;37058;41.442;23.240;2022-07-23T13:36:06;100181.88;;;37.39;20.92